Time;durP1;ratioP1;P1;durP2;ratioP2;P2;SDS_P1;SDS_P2;PMS_P1;PMS_P2;Temp;Humidity;BMP_temperature;BMP_pressure;BME280_temperature;BME280_humidity;BME280_pressure;Samples;Min_cycle;Max_cycle;Signal;HPM_P1;HPM_P2
2022/03/19 00:02:00;;;;;;;118.83;65.50;;;2.80;99.90;;;;;;5097465;28;20254;-74
2022/03/19 00:04:28;;;;;;;115.73;65.63;;;2.70;99.90;;;;;;5098083;28;20200;-74
2022/03/19 00:06:55;;;;;;;118.20;67.13;;;2.60;99.90;;;;;;5103184;28;20192;-74
2022/03/19 00:09:22;;;;;;;118.00;64.67;;;2.50;99.90;;;;;;5103586;28;20203;-75
2022/03/19 00:11:49;;;;;;;120.77;65.77;;;2.50;99.90;;;;;;5105392;28;20197;-75
2022/03/19 00:14:18;;;;;;;118.07;66.33;;;2.40;99.90;;;;;;5105122;28;20249;-75
2022/03/19 00:16:45;;;;;;;118.63;66.87;;;2.50;99.90;;;;;;5099294;28;20232;-75
2022/03/19 00:19:11;;;;;;;126.33;68.07;;;2.50;99.90;;;;;;5098353;28;20192;-74
2022/03/19 00:21:40;;;;;;;126.00;67.53;;;2.40;99.90;;;;;;5097222;28;20235;-74
2022/03/19 00:24:08;;;;;;;122.37;67.13;;;2.40;99.90;;;;;;5097709;28;20196;-75
2022/03/19 00:26:34;;;;;;;124.07;67.47;;;2.40;99.90;;;;;;5097085;28;20236;-75
2022/03/19 00:29:01;;;;;;;126.17;66.80;;;2.30;99.90;;;;;;5096722;28;20193;-75
2022/03/19 00:31:28;;;;;;;130.27;69.40;;;2.20;99.90;;;;;;5097093;28;20250;-75
2022/03/19 00:33:55;;;;;;;122.23;67.53;;;2.30;99.90;;;;;;5096497;28;20204;-75
2022/03/19 00:36:22;;;;;;;128.43;67.87;;;2.10;99.90;;;;;;5096903;28;20200;-74
2022/03/19 00:38:51;;;;;;;127.50;66.20;;;2.00;99.90;;;;;;5096936;28;20200;-74
2022/03/19 00:41:17;;;;;;;125.43;65.47;;;1.90;99.90;;;;;;5096574;28;20593;-75
2022/03/19 00:43:44;;;;;;;121.83;66.77;;;2.00;99.90;;;;;;5096040;28;20204;-74
2022/03/19 00:46:11;;;;;;;125.57;66.53;;;1.80;99.90;;;;;;5095980;28;20200;-74
2022/03/19 00:48:38;;;;;;;124.00;65.20;;;1.70;99.90;;;;;;5096126;28;20247;-76
2022/03/19 00:51:05;;;;;;;131.30;68.73;;;1.70;99.90;;;;;;5096268;28;20277;-75
2022/03/19 00:53:31;;;;;;;133.93;67.73;;;1.80;99.90;;;;;;5095946;28;20246;-75
2022/03/19 00:55:59;;;;;;;132.83;69.73;;;1.80;99.90;;;;;;5096188;28;20200;-75
2022/03/19 00:58:26;;;;;;;133.13;67.90;;;1.90;99.90;;;;;;5096039;28;20597;-74
2022/03/19 01:00:53;;;;;;;132.97;68.10;;;1.90;99.90;;;;;;5095819;28;20670;-74
2022/03/19 01:03:19;;;;;;;139.37;69.37;;;1.80;99.90;;;;;;5095947;28;20200;-74
2022/03/19 01:05:46;;;;;;;139.47;69.80;;;1.70;99.90;;;;;;5095905;28;20200;-74
2022/03/19 01:08:13;;;;;;;133.33;69.03;;;1.70;99.90;;;;;;5096106;28;20207;-74
2022/03/19 01:10:40;;;;;;;135.03;68.63;;;1.60;99.90;;;;;;5095932;28;20216;-74
2022/03/19 01:13:08;;;;;;;133.53;68.37;;;1.60;99.90;;;;;;5100422;28;20196;-74
2022/03/19 01:15:35;;;;;;;138.17;67.47;;;1.50;99.90;;;;;;5103423;28;20196;-74
2022/03/19 01:18:02;;;;;;;136.80;69.27;;;1.50;99.90;;;;;;5104078;28;20245;-74
2022/03/19 01:20:30;;;;;;;137.83;70.73;;;1.50;99.90;;;;;;5104298;28;20312;-74
2022/03/19 01:22:56;;;;;;;137.10;69.57;;;1.50;99.90;;;;;;5104278;28;20312;-74
2022/03/19 01:25:23;;;;;;;139.93;71.67;;;1.50;99.90;;;;;;5104904;28;20197;-75
2022/03/19 01:27:51;;;;;;;133.53;69.33;;;1.60;99.90;;;;;;5103798;28;20192;-75
2022/03/19 01:30:22;;;;;;;145.07;70.90;;;1.60;99.90;;;;;;5105329;28;20635;-75
2022/03/19 01:32:50;;;;;;;135.07;68.67;;;1.60;99.90;;;;;;5106472;28;20207;-75
2022/03/19 01:35:18;;;;;;;145.60;71.90;;;1.60;99.90;;;;;;5105999;28;20852;-74
2022/03/19 01:37:46;;;;;;;151.43;70.40;;;1.60;99.90;;;;;;5103276;28;20222;-75
2022/03/19 01:40:13;;;;;;;135.40;67.50;;;1.80;99.90;;;;;;5101597;28;20713;-75
2022/03/19 01:42:42;;;;;;;145.60;69.00;;;1.80;99.90;;;;;;5100346;28;20253;-74
2022/03/19 01:45:11;;;;;;;146.93;69.57;;;1.80;99.90;;;;;;5102289;28;20196;-74
2022/03/19 01:47:39;;;;;;;144.47;70.37;;;1.90;99.90;;;;;;5102543;28;20222;-75
2022/03/19 01:50:07;;;;;;;139.97;68.43;;;2.00;99.90;;;;;;5102051;28;20249;-75
2022/03/19 01:52:34;;;;;;;147.80;70.80;;;2.10;99.90;;;;;;5100658;28;20197;-75
2022/03/19 01:55:02;;;;;;;148.07;71.10;;;2.10;99.90;;;;;;5100118;28;20197;-75
2022/03/19 01:57:34;;;;;;;144.27;70.57;;;2.10;99.90;;;;;;5098651;28;20196;-74
2022/03/19 02:00:02;;;;;;;151.47;71.63;;;2.10;99.90;;;;;;5096317;28;20222;-74
2022/03/19 02:02:29;;;;;;;149.53;72.30;;;2.10;99.90;;;;;;5094993;28;20661;-74
2022/03/19 02:04:59;;;;;;;149.43;71.47;;;2.10;99.90;;;;;;5094802;28;20208;-73
2022/03/19 02:07:26;;;;;;;155.00;71.47;;;2.20;99.90;;;;;;5094612;28;20200;-74
2022/03/19 02:09:52;;;;;;;148.93;73.20;;;2.10;99.90;;;;;;5094466;28;20609;-74
2022/03/19 02:12:21;;;;;;;149.47;71.27;;;2.00;99.90;;;;;;5095621;28;20277;-74
2022/03/19 02:14:48;;;;;;;151.30;70.10;;;2.10;99.90;;;;;;5095780;28;20249;-74
2022/03/19 02:17:15;;;;;;;153.77;70.97;;;2.10;99.90;;;;;;5096078;28;20224;-73
2022/03/19 02:19:49;;;;;;;156.03;72.90;;;2.10;99.90;;;;;;5095955;28;20200;-73
2022/03/19 02:22:18;;;;;;;163.33;71.20;;;2.10;99.90;;;;;;5096092;28;20204;-74
2022/03/19 02:27:30;;;;;;;150.73;71.10;;;2.00;99.90;;;;;;5096211;28;20196;-74
2022/03/19 02:29:57;;;;;;;154.70;71.30;;;2.10;99.90;;;;;;5095041;28;20544;-75
2022/03/19 02:32:25;;;;;;;152.07;73.13;;;2.10;99.90;;;;;;5094405;28;20281;-75
2022/03/19 02:34:52;;;;;;;146.37;70.17;;;2.00;99.90;;;;;;5093908;28;20200;-74
2022/03/19 02:37:19;;;;;;;141.57;68.37;;;2.00;99.90;;;;;;5094662;28;20193;-74
2022/03/19 02:39:47;;;;;;;147.40;70.50;;;2.00;99.90;;;;;;5094273;28;20655;-75
2022/03/19 02:42:17;;;;;;;146.57;70.40;;;1.90;99.90;;;;;;5094409;28;20242;-74
2022/03/19 02:44:44;;;;;;;147.43;68.70;;;1.90;99.90;;;;;;5094036;28;20200;-74
2022/03/19 02:47:11;;;;;;;158.30;73.20;;;1.90;99.90;;;;;;5094048;28;20200;-74
2022/03/19 02:49:38;;;;;;;154.83;72.50;;;1.80;99.90;;;;;;5094342;28;20224;-74
2022/03/19 02:52:05;;;;;;;153.17;71.07;;;1.90;99.90;;;;;;5095213;28;20269;-74
2022/03/19 02:54:33;;;;;;;151.20;72.23;;;1.90;99.90;;;;;;5098112;28;20196;-75
2022/03/19 02:57:01;;;;;;;147.00;69.57;;;1.80;99.90;;;;;;5098390;28;20196;-75
2022/03/19 02:59:29;;;;;;;153.93;71.40;;;1.80;99.90;;;;;;5098682;28;20196;-75
2022/03/19 03:01:57;;;;;;;154.00;70.63;;;1.70;99.90;;;;;;5098793;28;20621;-75
2022/03/19 03:04:25;;;;;;;156.60;72.33;;;1.70;99.90;;;;;;5098560;28;20196;-75
2022/03/19 03:06:53;;;;;;;164.60;73.13;;;1.70;99.90;;;;;;5098114;28;20220;-75
2022/03/19 03:09:22;;;;;;;153.10;71.67;;;1.70;99.90;;;;;;5097661;28;20652;-75
2022/03/19 03:11:48;;;;;;;156.67;72.30;;;1.70;99.90;;;;;;5097770;28;20228;-75
2022/03/19 03:14:18;;;;;;;168.47;72.53;;;1.70;99.90;;;;;;5097682;28;20196;-75
2022/03/19 03:16:45;;;;;;;158.10;72.10;;;1.70;99.90;;;;;;5098095;28;20192;-75
2022/03/19 03:19:12;;;;;;;165.30;73.27;;;1.60;99.90;;;;;;5097867;28;20193;-75
2022/03/19 03:21:40;;;;;;;158.70;72.80;;;1.60;99.90;;;;;;5097800;28;20224;-75
2022/03/19 03:24:08;;;;;;;157.33;72.10;;;1.70;99.90;;;;;;5097595;28;20200;-74
2022/03/19 03:26:36;;;;;;;160.73;74.23;;;1.60;99.90;;;;;;5097899;28;20283;-74
2022/03/19 03:29:03;;;;;;;156.80;73.73;;;1.70;99.90;;;;;;5097888;28;20227;-74
2022/03/19 03:31:31;;;;;;;154.60;73.93;;;1.70;99.90;;;;;;5097860;28;20227;-74
2022/03/19 03:33:58;;;;;;;165.30;73.37;;;1.70;99.90;;;;;;5097847;28;20617;-74
2022/03/19 03:36:25;;;;;;;158.67;71.70;;;1.70;99.90;;;;;;5097763;28;20613;-74
2022/03/19 03:38:52;;;;;;;160.97;74.27;;;1.80;99.90;;;;;;5097390;28;20655;-74
2022/03/19 03:41:19;;;;;;;166.23;77.53;;;1.80;99.90;;;;;;5097454;28;20204;-74
2022/03/19 03:43:46;;;;;;;160.47;73.87;;;1.80;99.90;;;;;;5097506;28;20196;-75
2022/03/19 03:46:13;;;;;;;172.43;77.37;;;1.70;99.90;;;;;;5097700;28;20200;-74
2022/03/19 03:48:41;;;;;;;159.97;74.00;;;1.70;99.90;;;;;;5097125;28;20200;-74
2022/03/19 03:51:10;;;;;;;165.70;76.93;;;1.80;99.90;;;;;;5097105;28;20266;-75
2022/03/19 03:53:38;;;;;;;172.17;78.20;;;1.70;99.90;;;;;;5096672;28;20200;-74
2022/03/19 03:56:05;;;;;;;162.67;76.20;;;1.80;99.90;;;;;;5096570;28;20195;-74
2022/03/19 03:58:32;;;;;;;161.30;75.40;;;1.80;99.90;;;;;;5096940;28;20196;-74
2022/03/19 04:00:59;;;;;;;155.93;74.23;;;1.80;99.90;;;;;;5096725;28;20242;-74
2022/03/19 04:03:26;;;;;;;167.47;75.37;;;1.70;99.90;;;;;;5096126;28;20238;-74
2022/03/19 04:05:54;;;;;;;171.17;78.20;;;1.70;99.90;;;;;;5096291;28;20246;-75
2022/03/19 04:08:21;;;;;;;173.03;75.77;;;1.70;99.90;;;;;;5096643;28;20246;-74
2022/03/19 04:10:48;;;;;;;171.60;76.03;;;1.70;99.90;;;;;;5096620;28;20254;-74
2022/03/19 04:13:15;;;;;;;162.20;72.37;;;1.70;99.90;;;;;;5096440;28;20196;-74
2022/03/19 04:15:41;;;;;;;156.17;73.27;;;1.70;99.90;;;;;;5096265;28;20627;-75
2022/03/19 04:18:08;;;;;;;168.73;74.83;;;1.70;99.90;;;;;;5096129;28;20249;-74
2022/03/19 04:20:35;;;;;;;169.07;77.27;;;1.70;99.90;;;;;;5095693;28;20298;-74
2022/03/19 04:23:03;;;;;;;160.17;75.43;;;1.60;99.90;;;;;;5096057;28;20250;-74
2022/03/19 04:25:30;;;;;;;170.97;76.90;;;1.70;99.90;;;;;;5096141;28;20192;-74
2022/03/19 04:27:57;;;;;;;167.80;75.50;;;1.70;99.90;;;;;;5096141;28;20273;-75
2022/03/19 04:30:26;;;;;;;158.30;75.43;;;1.60;99.90;;;;;;5096652;28;20252;-74
2022/03/19 04:32:54;;;;;;;163.20;77.43;;;1.70;99.90;;;;;;5096305;28;20375;-75
2022/03/19 04:38:15;;;;;;;156.50;73.87;;;1.70;99.90;;;;;;5020781;28;20210;-75
2022/03/19 04:40:43;;;;;;;176.73;78.93;;;1.70;99.90;;;;;;5096750;28;20249;-74
2022/03/19 04:43:09;;;;;;;159.97;75.23;;;1.80;99.90;;;;;;5095996;28;20204;-74
2022/03/19 04:45:36;;;;;;;154.97;74.00;;;1.60;99.90;;;;;;5096573;28;20200;-74
2022/03/19 04:48:03;;;;;;;160.60;76.50;;;1.60;99.90;;;;;;5095887;28;20242;-74
2022/03/19 04:50:30;;;;;;;163.53;74.37;;;1.60;99.90;;;;;;5096000;28;20196;-74
2022/03/19 04:52:57;;;;;;;167.23;75.17;;;1.60;99.90;;;;;;5096023;28;20277;-74
2022/03/19 04:55:27;;;;;;;163.17;78.67;;;1.50;99.90;;;;;;5096476;28;20196;-74
2022/03/19 04:57:53;;;;;;;164.87;76.57;;;1.50;99.90;;;;;;5096047;28;20196;-74
2022/03/19 05:00:20;;;;;;;172.93;78.70;;;1.40;99.90;;;;;;5096258;28;20246;-74
2022/03/19 05:02:47;;;;;;;165.43;76.00;;;1.40;99.90;;;;;;5095862;28;20254;-74
2022/03/19 05:05:13;;;;;;;177.70;75.10;;;1.30;99.90;;;;;;5095178;28;20202;-74
2022/03/19 05:07:40;;;;;;;163.93;74.27;;;1.30;99.90;;;;;;5095628;28;20197;-74
2022/03/19 05:12:55;;;;;;;168.73;74.73;;;1.30;99.90;;;;;;5094944;28;20223;-74
2022/03/19 05:15:22;;;;;;;177.23;76.33;;;1.30;99.90;;;;;;5097660;28;20197;-74
2022/03/19 05:17:49;;;;;;;186.97;79.27;;;1.30;99.90;;;;;;5096479;28;20255;-74
2022/03/19 05:20:15;;;;;;;173.67;76.27;;;1.40;99.90;;;;;;5095899;28;20228;-73
2022/03/19 05:22:42;;;;;;;183.50;78.40;;;1.30;99.90;;;;;;5095721;28;20595;-74
2022/03/19 05:25:09;;;;;;;161.33;75.43;;;1.40;99.90;;;;;;5095704;28;20238;-74
2022/03/19 05:27:37;;;;;;;170.10;77.67;;;1.40;99.90;;;;;;5095941;28;20196;-74
2022/03/19 05:30:08;;;;;;;165.80;74.83;;;1.40;99.90;;;;;;5096187;28;20283;-74
2022/03/19 05:32:34;;;;;;;161.63;71.17;;;1.40;99.90;;;;;;5094907;28;20234;-74
2022/03/19 05:35:02;;;;;;;167.80;73.13;;;1.50;99.90;;;;;;5094621;28;20192;-74
2022/03/19 05:37:29;;;;;;;168.53;72.70;;;1.40;99.90;;;;;;5094403;28;20647;-74
2022/03/19 05:39:56;;;;;;;175.50;74.03;;;1.40;99.90;;;;;;5094478;28;20196;-74
2022/03/19 05:42:23;;;;;;;158.40;70.43;;;1.40;99.90;;;;;;5094475;28;20261;-75
2022/03/19 05:44:50;;;;;;;167.03;71.50;;;1.50;99.90;;;;;;5094449;28;20655;-75
2022/03/19 05:47:18;;;;;;;171.43;71.97;;;1.60;99.90;;;;;;5094555;28;20192;-75
2022/03/19 05:49:44;;;;;;;151.83;70.50;;;1.60;99.90;;;;;;5094241;28;20196;-74
2022/03/19 05:52:11;;;;;;;165.60;72.40;;;1.60;99.90;;;;;;5094145;28;20219;-73
2022/03/19 05:54:38;;;;;;;165.13;73.90;;;1.60;99.90;;;;;;5094599;28;20196;-74
2022/03/19 05:57:05;;;;;;;160.63;72.53;;;1.60;99.90;;;;;;5094357;28;20604;-75
2022/03/19 05:59:32;;;;;;;166.77;72.07;;;1.60;99.90;;;;;;5094296;28;20192;-74
2022/03/19 06:01:59;;;;;;;158.83;70.87;;;1.60;99.90;;;;;;5094715;28;20200;-74
2022/03/19 06:04:27;;;;;;;161.87;72.20;;;1.70;99.90;;;;;;5094363;28;20233;-74
2022/03/19 06:06:53;;;;;;;157.57;71.97;;;1.70;99.90;;;;;;5094175;28;20200;-74
2022/03/19 06:09:20;;;;;;;157.27;72.60;;;1.80;99.90;;;;;;5093934;28;20196;-74
2022/03/19 06:11:46;;;;;;;153.53;70.97;;;1.80;99.90;;;;;;5094925;28;20273;-74
2022/03/19 06:14:13;;;;;;;156.07;69.90;;;1.90;99.90;;;;;;5094778;28;20199;-74
2022/03/19 06:16:40;;;;;;;141.17;69.73;;;2.00;99.90;;;;;;5094342;28;20291;-75
2022/03/19 06:19:07;;;;;;;149.10;69.87;;;2.00;99.90;;;;;;5094469;28;20200;-74
2022/03/19 06:21:35;;;;;;;150.80;70.10;;;2.10;99.90;;;;;;5093862;28;20699;-74
2022/03/19 06:24:03;;;;;;;151.97;69.27;;;2.20;99.90;;;;;;5093916;28;20197;-74
2022/03/19 06:26:30;;;;;;;153.77;68.50;;;2.20;99.90;;;;;;5093578;28;20678;-74
2022/03/19 06:28:57;;;;;;;142.30;67.07;;;2.30;99.90;;;;;;5093671;28;20722;-74
2022/03/19 06:31:23;;;;;;;144.83;68.20;;;2.40;99.90;;;;;;5093759;28;20222;-73
2022/03/19 06:33:50;;;;;;;140.40;69.17;;;2.40;99.90;;;;;;5093836;28;20598;-74
2022/03/19 06:39:04;;;;;;;136.87;67.17;;;2.60;99.90;;;;;;5093838;28;20191;-74
2022/03/19 06:41:31;;;;;;;131.33;66.20;;;2.60;99.90;;;;;;5093859;28;20219;-74
2022/03/19 06:43:58;;;;;;;136.93;66.97;;;2.70;99.90;;;;;;5093776;28;20257;-74
2022/03/19 06:46:25;;;;;;;132.63;65.43;;;2.80;99.90;;;;;;5094518;28;20273;-74
2022/03/19 06:48:52;;;;;;;129.17;64.30;;;2.90;99.90;;;;;;5094309;28;20201;-75
2022/03/19 06:51:19;;;;;;;124.93;64.33;;;2.90;99.90;;;;;;5093940;28;20222;-74
2022/03/19 06:53:47;;;;;;;121.53;60.70;;;3.00;99.90;;;;;;5094151;28;20224;-74
2022/03/19 06:56:15;;;;;;;117.37;59.83;;;3.10;99.90;;;;;;5094399;28;20197;-74
2022/03/19 06:58:42;;;;;;;109.80;56.30;;;3.20;99.90;;;;;;5094010;28;20192;-74
2022/03/19 07:01:15;;;;;;;100.33;54.10;;;3.30;99.90;;;;;;5093788;28;20196;-74
2022/03/19 07:03:42;;;;;;;98.67;51.13;;;3.30;99.90;;;;;;5094888;28;20204;-74
2022/03/19 07:06:08;;;;;;;94.10;52.43;;;3.40;99.90;;;;;;5094794;28;20666;-74
2022/03/19 07:08:35;;;;;;;91.17;48.57;;;3.50;99.90;;;;;;5094225;28;20197;-74
2022/03/19 07:11:02;;;;;;;82.17;47.77;;;3.60;99.90;;;;;;5101022;28;20224;-75
2022/03/19 07:13:30;;;;;;;81.90;46.50;;;3.70;99.90;;;;;;5096913;28;20226;-74
2022/03/19 07:15:56;;;;;;;79.60;46.50;;;3.70;99.90;;;;;;5103314;28;20207;-74
2022/03/19 07:18:23;;;;;;;73.23;44.90;;;3.80;99.90;;;;;;5100832;28;20210;-75
2022/03/19 07:20:50;;;;;;;76.53;44.57;;;3.90;99.90;;;;;;5095971;28;20283;-75
2022/03/19 07:23:17;;;;;;;69.07;41.87;;;3.90;99.90;;;;;;5095287;28;20199;-75
2022/03/19 07:25:44;;;;;;;65.93;41.53;;;4.00;99.90;;;;;;5095835;28;20199;-75
2022/03/19 07:28:12;;;;;;;66.90;40.00;;;4.00;99.90;;;;;;5094618;28;20238;-76
2022/03/19 07:30:41;;;;;;;65.17;40.57;;;4.10;99.90;;;;;;5093911;28;20253;-76
2022/03/19 07:33:08;;;;;;;63.60;40.00;;;4.30;99.90;;;;;;5093926;28;20913;-76
2022/03/19 07:35:35;;;;;;;65.27;40.97;;;4.40;99.90;;;;;;5094234;28;20212;-75
2022/03/19 07:38:04;;;;;;;63.67;40.17;;;4.60;99.90;;;;;;5090145;28;20731;-75
2022/03/19 07:43:16;;;;;;;60.23;39.03;;;4.80;99.90;;;;;;5098440;28;20678;-75
2022/03/19 07:45:44;;;;;;;54.87;37.73;;;4.90;99.90;;;;;;5104729;28;20649;-75
2022/03/19 07:48:11;;;;;;;59.80;38.37;;;5.00;99.90;;;;;;5104922;28;20246;-75
2022/03/19 07:50:38;;;;;;;56.97;39.60;;;5.10;99.90;;;;;;5105180;28;20601;-76
2022/03/19 07:53:06;;;;;;;55.73;38.47;;;5.30;99.90;;;;;;5105777;28;20220;-75
2022/03/19 07:55:33;;;;;;;57.10;41.37;;;5.50;99.90;;;;;;5106467;28;20601;-76
2022/03/19 07:57:59;;;;;;;63.73;41.13;;;5.60;99.90;;;;;;5105975;28;20222;-76
2022/03/19 08:00:26;;;;;;;58.87;39.90;;;5.80;99.90;;;;;;5105647;28;20199;-76
2022/03/19 08:02:54;;;;;;;55.23;39.70;;;5.90;99.90;;;;;;5114297;28;20223;-75
2022/03/19 08:05:21;;;;;;;53.30;37.50;;;6.10;99.90;;;;;;5103078;28;20204;-76
2022/03/19 08:07:48;;;;;;;59.30;40.60;;;6.30;99.90;;;;;;5098940;28;20196;-76
2022/03/19 08:10:15;;;;;;;56.97;39.57;;;6.50;99.90;;;;;;5094979;28;20204;-76
2022/03/19 08:12:43;;;;;;;53.87;39.10;;;6.50;99.90;;;;;;5096156;28;20274;-76
2022/03/19 08:15:11;;;;;;;54.83;37.70;;;6.60;99.90;;;;;;5096475;28;20687;-76
2022/03/19 08:17:38;;;;;;;52.87;37.10;;;6.60;99.90;;;;;;5096555;28;20258;-76
2022/03/19 08:20:08;;;;;;;58.13;38.67;;;6.80;99.90;;;;;;5096122;28;20578;-77
2022/03/19 08:22:35;;;;;;;48.47;34.93;;;6.80;99.90;;;;;;5096034;28;20199;-77
2022/03/19 08:25:03;;;;;;;51.50;36.30;;;6.90;99.90;;;;;;5095364;28;20201;-76
2022/03/19 08:27:30;;;;;;;46.50;35.67;;;7.10;99.90;;;;;;5095593;28;20203;-76
2022/03/19 08:29:56;;;;;;;47.53;35.03;;;7.30;99.90;;;;;;5095435;28;20546;-75
2022/03/19 08:32:24;;;;;;;45.30;34.77;;;7.40;99.90;;;;;;5095098;28;20701;-75
2022/03/19 08:34:52;;;;;;;48.53;35.50;;;7.50;99.90;;;;;;5094989;28;20204;-75
2022/03/19 08:37:20;;;;;;;46.20;33.40;;;7.60;99.90;;;;;;5095156;28;20196;-76
2022/03/19 08:42:33;;;;;;;48.30;32.20;;;7.90;99.90;;;;;;5095105;28;20254;-77
2022/03/19 08:45:00;;;;;;;45.60;33.57;;;8.00;99.90;;;;;;5094860;28;20298;-76
2022/03/19 08:47:27;;;;;;;41.10;30.20;;;8.00;99.90;;;;;;5094801;28;20204;-76
2022/03/19 08:49:53;;;;;;;43.03;30.83;;;8.20;99.90;;;;;;5094790;28;20196;-76
2022/03/19 08:52:21;;;;;;;39.47;29.10;;;8.50;99.90;;;;;;5094601;28;20602;-76
2022/03/19 08:54:48;;;;;;;39.47;29.07;;;8.70;99.90;;;;;;5094745;28;20196;-75
2022/03/19 08:57:15;;;;;;;36.20;28.17;;;8.90;99.90;;;;;;5086649;28;20196;-76
2022/03/19 08:59:41;;;;;;;33.27;26.10;;;9.00;99.90;;;;;;5087886;28;20228;-75
2022/03/19 09:02:09;;;;;;;38.57;28.83;;;9.00;99.90;;;;;;5094252;28;20578;-77
2022/03/19 09:04:37;;;;;;;35.40;26.60;;;9.30;99.90;;;;;;5095128;28;20593;-76
2022/03/19 09:07:04;;;;;;;33.90;26.63;;;9.50;99.90;;;;;;5094459;28;20663;-77
2022/03/19 09:09:32;;;;;;;35.77;26.57;;;9.60;99.90;;;;;;5094164;28;20208;-76
2022/03/19 09:11:58;;;;;;;38.20;27.93;;;9.60;99.90;;;;;;5093828;28;20200;-75
2022/03/19 09:14:26;;;;;;;37.10;27.43;;;9.60;99.90;;;;;;5093627;28;20231;-77
2022/03/19 09:16:53;;;;;;;33.53;26.47;;;9.90;99.90;;;;;;5093918;28;20273;-76
2022/03/19 09:19:20;;;;;;;34.73;27.50;;;9.90;99.90;;;;;;5093698;28;20710;-76
2022/03/19 09:21:47;;;;;;;37.27;27.43;;;10.10;99.90;;;;;;5092942;28;20220;-75
2022/03/19 09:24:15;;;;;;;34.00;26.87;;;10.30;99.90;;;;;;5094108;28;20204;-76
2022/03/19 09:26:43;;;;;;;31.87;22.07;;;10.20;99.90;;;;;;5093677;28;20281;-76
2022/03/19 09:29:10;;;;;;;29.57;22.70;;;10.00;99.90;;;;;;5094051;28;20230;-75
2022/03/19 09:31:37;;;;;;;31.15;24.80;;;10.40;99.90;;;;;;5092882;28;20437;-75
2022/03/19 09:34:03;;;;;;;25.90;21.57;;;10.60;99.90;;;;;;5094028;28;20228;-75
2022/03/19 09:36:30;;;;;;;27.47;20.73;;;10.60;97.70;;;;;;5094043;28;20200;-75
2022/03/19 09:38:57;;;;;;;27.77;20.10;;;10.60;98.10;;;;;;5093673;28;20204;-74
2022/03/19 09:41:23;;;;;;;26.10;20.80;;;11.00;93.90;;;;;;5093569;28;20448;-76
2022/03/19 09:43:51;;;;;;;23.53;19.27;;;10.60;94.70;;;;;;5093704;28;20204;-76
2022/03/19 09:46:18;;;;;;;26.30;19.80;;;10.40;95.60;;;;;;5093829;28;20204;-76
2022/03/19 09:48:45;;;;;;;22.90;18.47;;;10.40;96.50;;;;;;5093303;28;20270;-76
2022/03/19 09:51:12;;;;;;;22.90;19.13;;;10.10;95.30;;;;;;5093187;28;20273;-76
2022/03/19 09:53:42;;;;;;;24.40;18.73;;;10.00;99.00;;;;;;5093115;28;20553;-76
2022/03/19 09:56:10;;;;;;;22.20;17.97;;;9.80;99.90;;;;;;5093625;28;20207;-75
2022/03/19 09:58:36;;;;;;;22.37;17.80;;;10.30;97.80;;;;;;5093277;28;20227;-76
2022/03/19 10:01:06;;;;;;;19.20;16.30;;;10.60;97.20;;;;;;5093370;28;20200;-76
2022/03/19 10:03:34;;;;;;;19.02;14.90;;;11.40;91.20;;;;;;5093039;28;20192;-76
2022/03/19 10:08:56;;;;;;;18.63;15.60;;;12.90;76.60;;;;;;5093173;28;20314;-76
2022/03/19 10:11:23;;;;;;;17.95;15.07;;;13.50;64.30;;;;;;5093359;28;20196;-77
2022/03/19 10:13:52;;;;;;;17.95;15.80;;;14.00;59.10;;;;;;5093017;28;20459;-76
2022/03/19 10:16:23;;;;;;;17.48;15.65;;;13.90;54.20;;;;;;5093146;28;20197;-76
2022/03/19 10:18:56;;;;;;;16.85;14.35;;;12.90;54.90;;;;;;5093531;28;20208;-76
2022/03/19 10:21:23;;;;;;;18.88;15.40;;;12.50;55.80;;;;;;5093195;28;20220;-76
2022/03/19 10:23:51;;;;;;;18.75;13.73;;;12.00;58.40;;;;;;5093199;28;20309;-75
2022/03/19 10:26:26;;;;;;;18.07;13.80;;;11.70;57.80;;;;;;5092868;28;20655;-76
2022/03/19 10:29:01;;;;;;;14.67;10.77;;;11.50;56.40;;;;;;5092970;28;20196;-75
2022/03/19 10:31:34;;;;;;;16.47;10.57;;;11.10;53.40;;;;;;5092968;28;20272;-74
2022/03/19 10:34:01;;;;;;;14.60;10.63;;;11.20;53.90;;;;;;5092676;28;20224;-75
2022/03/19 10:36:32;;;;;;;14.63;10.10;;;10.90;54.50;;;;;;5092816;28;20204;-75
2022/03/19 10:39:00;;;;;;;13.87;9.53;;;11.20;52.40;;;;;;5092979;28;20226;-75
2022/03/19 10:41:27;;;;;;;13.83;10.07;;;11.80;50.50;;;;;;5092832;28;20196;-75
2022/03/19 10:43:54;;;;;;;12.07;9.70;;;11.60;49.60;;;;;;5091710;28;20604;-75
2022/03/19 10:46:20;;;;;;;17.93;9.43;;;11.90;50.30;;;;;;5092689;28;20192;-75
2022/03/19 10:48:54;;;;;;;15.18;9.13;;;12.80;48.20;;;;;;5092942;28;20200;-75
2022/03/19 10:51:21;;;;;;;11.25;8.80;;;13.60;46.30;;;;;;5092951;28;20598;-74
2022/03/19 10:53:50;;;;;;;10.73;8.30;;;14.60;43.10;;;;;;5092747;28;20260;-76
2022/03/19 10:56:16;;;;;;;9.82;7.45;;;15.30;37.50;;;;;;5092642;28;20205;-75
2022/03/19 10:58:43;;;;;;;8.13;7.32;;;16.10;33.90;;;;;;5092626;28;20250;-75
2022/03/19 11:01:12;;;;;;;10.85;6.68;;;16.70;30.70;;;;;;5092729;28;20198;-75
2022/03/19 11:03:42;;;;;;;8.73;6.38;;;16.80;28.70;;;;;;5092981;28;20200;-74
2022/03/19 11:06:11;;;;;;;10.20;6.28;;;17.40;26.50;;;;;;5092611;28;20727;-76
2022/03/19 11:08:42;;;;;;;8.68;6.80;;;17.90;23.60;;;;;;5091480;28;20437;-76
2022/03/19 11:11:12;;;;;;;9.18;6.75;;;18.50;22.60;;;;;;5092485;28;20533;-75
2022/03/19 11:13:43;;;;;;;11.43;6.40;;;18.40;21.10;;;;;;5094230;28;20339;-74
2022/03/19 11:16:12;;;;;;;7.10;5.80;;;19.10;20.30;;;;;;5096820;28;20200;-75
2022/03/19 11:18:40;;;;;;;9.70;6.60;;;19.80;20.50;;;;;;5096432;28;20220;-74
2022/03/19 11:21:07;;;;;;;10.07;7.38;;;19.70;21.10;;;;;;5096246;28;20248;-74
2022/03/19 11:23:43;;;;;;;10.25;7.35;;;18.90;22.70;;;;;;5096301;28;20203;-74
2022/03/19 11:26:12;;;;;;;9.18;7.60;;;17.80;24.20;;;;;;5096319;28;20604;-75
2022/03/19 11:28:39;;;;;;;9.30;7.80;;;16.10;25.20;;;;;;5096511;28;20253;-75
2022/03/19 11:31:08;;;;;;;9.23;6.80;;;16.80;25.60;;;;;;5096402;28;20196;-77
2022/03/19 11:33:37;;;;;;;11.00;7.10;;;16.60;24.90;;;;;;5099523;28;20247;-80
2022/03/19 11:36:06;;;;;;;12.60;7.22;;;17.60;24.20;;;;;;5112181;28;20200;-76
2022/03/19 11:38:41;;;;;;;9.57;6.82;;;18.70;23.90;;;;;;5096205;28;20773;-79
2022/03/19 11:41:21;;;;;;;12.32;7.28;;;19.10;23.60;;;;;;5096519;28;20230;-78
2022/03/19 11:43:48;;;;;;;7.50;6.43;;;19.70;22.30;;;;;;5096081;28;20196;-78
2022/03/19 11:46:15;;;;;;;7.55;6.72;;;19.30;20.60;;;;;;5095884;28;20617;-77
2022/03/19 11:48:51;;;;;;;8.60;6.40;;;19.90;20.90;;;;;;5095845;28;20657;-76
2022/03/19 11:51:19;;;;;;;7.82;6.50;;;20.70;20.20;;;;;;5096352;28;20286;-78
2022/03/19 11:53:55;;;;;;;8.35;6.30;;;21.30;20.00;;;;;;5095829;28;20220;-77
2022/03/19 11:56:22;;;;;;;8.80;6.38;;;19.40;19.70;;;;;;5096327;28;20258;-76
2022/03/19 11:58:49;;;;;;;7.85;6.70;;;17.50;21.00;;;;;;5096630;28;20204;-76
2022/03/19 12:01:16;;;;;;;7.90;6.43;;;16.80;23.20;;;;;;5095580;28;20204;-74
2022/03/19 12:04:11;;;;;;;7.72;6.32;;;18.10;22.90;;;;;;5095524;28;20197;-78
2022/03/19 12:06:39;;;;;;;7.03;6.30;;;18.70;20.70;;;;;;5095700;28;20196;-76
2022/03/19 12:09:08;;;;;;;7.55;6.72;;;19.50;20.00;;;;;;5095390;28;20644;-76
2022/03/19 12:11:35;;;;;;;8.25;6.80;;;17.70;21.40;;;;;;5095782;28;20204;-76
2022/03/19 12:14:10;;;;;;;7.50;5.95;;;17.70;21.60;;;;;;5096072;28;20522;-77
2022/03/19 12:16:41;;;;;;;7.90;6.45;;;17.40;21.50;;;;;;5095469;28;20252;-77
2022/03/19 12:19:09;;;;;;;7.40;6.07;;;18.50;21.10;;;;;;5095201;28;20567;-77
2022/03/19 12:21:37;;;;;;;8.65;6.22;;;19.30;19.80;;;;;;5095308;28;20311;-76
2022/03/19 12:24:19;;;;;;;8.43;6.15;;;17.50;20.00;;;;;;5095290;28;20201;-77
2022/03/19 12:26:49;;;;;;;7.63;5.90;;;17.10;20.80;;;;;;5095118;28;20297;-77
2022/03/19 12:29:17;;;;;;;8.15;6.03;;;18.00;20.70;;;;;;5095395;28;20283;-76
2022/03/19 12:31:46;;;;;;;6.28;5.30;;;18.50;20.30;;;;;;5095164;28;20265;-76
2022/03/19 12:34:17;;;;;;;7.43;5.85;;;18.30;18.40;;;;;;5095180;28;20270;-78
2022/03/19 12:36:45;;;;;;;6.53;5.65;;;17.90;19.20;;;;;;5094910;28;20212;-79
2022/03/19 12:39:13;;;;;;;7.72;5.75;;;18.10;19.30;;;;;;5095270;28;20205;-78
2022/03/19 12:41:42;;;;;;;7.97;6.05;;;19.00;19.10;;;;;;5095083;28;20230;-78
2022/03/19 12:44:18;;;;;;;8.43;5.90;;;20.10;18.90;;;;;;5095027;28;20257;-75
2022/03/19 12:46:44;;;;;;;6.43;5.80;;;21.60;17.10;;;;;;5094951;28;20200;-75
2022/03/19 12:49:14;;;;;;;6.10;5.35;;;21.50;16.60;;;;;;5094851;28;20208;-75
2022/03/19 12:51:45;;;;;;;7.15;5.40;;;22.20;15.90;;;;;;5095059;28;20253;-76
2022/03/19 12:54:20;;;;;;;6.38;5.63;;;23.40;15.30;;;;;;5094538;28;20319;-75